EDDB/SXF METAR and TAF weather

Enter ICAO airport designator
Station Type Date Time Source
EDDB METAR 2019/02/23 02:20 UTC NOAA

EDDB 230220Z 13004KT CAVOK M04/M08 Q1044 NOSIG


Station Type Date Time Source
EDDB Decoded METAR 2019/02/23 02:20 UTC NOAA

Berlin-Schoenefeld, Germany (EDDB) 52-23N 013-31E 50M
Feb 22, 2019 - 09:20 PM EST / 2019.02.23 0220 UTC
Wind: from the SE (130 degrees) at 5 MPH (4 KT):0
Visibility: greater than 7 mile(s):0
Temperature: 24 F (-4 C)
Windchill: 17 F (-8 C):1
Dew Point: 17 F (-8 C)
Relative Humidity: 73%
Pressure (altimeter): 30.83 in. Hg (1044 hPa)
ob: EDDB 230220Z 13004KT CAVOK M04/M08 Q1044 NOSIG
cycle: 2

Station Type Date Time Source
EDDB TAF 2019/02/22 18:55 UTC NOAA

TAF EDDB 221700Z 2218/2318 10005KT CAVOK
BECMG 2307/2309 16006KT


Example: see airport list